sensor_id;sensor_type;location;lat;lon;timestamp;P1;durP1;ratioP1;P2;durP2;ratioP2
52126;SDS011;38120;53.176;6.614;2023-07-31T00:01:23;0.08;;;0.00;;
52126;SDS011;38120;53.176;6.614;2023-07-31T00:03:48;0.00;;;0.00;;
52126;SDS011;38120;53.176;6.614;2023-07-31T00:06:14;0.22;;;0.10;;
52126;SDS011;38120;53.176;6.614;2023-07-31T00:08:40;0.10;;;0.10;;
52126;SDS011;38120;53.176;6.614;2023-07-31T00:11:05;0.00;;;0.00;;
52126;SDS011;38120;53.176;6.614;2023-07-31T00:13:31;0.40;;;0.20;;
52126;SDS011;38120;53.176;6.614;2023-07-31T00:15:57;0.00;;;0.00;;
52126;SDS011;38120;53.176;6.614;2023-07-31T00:18:22;0.15;;;0.10;;
52126;SDS011;38120;53.176;6.614;2023-07-31T00:20:48;0.15;;;0.15;;
52126;SDS011;38120;53.176;6.614;2023-07-31T00:23:14;0.52;;;0.30;;
52126;SDS011;38120;53.176;6.614;2023-07-31T00:25:39;0.00;;;0.00;;
52126;SDS011;38120;53.176;6.614;2023-07-31T00:28:05;0.00;;;0.00;;
52126;SDS011;38120;53.176;6.614;2023-07-31T00:30:31;0.10;;;0.08;;
52126;SDS011;38120;53.176;6.614;2023-07-31T00:32:56;0.00;;;0.00;;
52126;SDS011;38120;53.176;6.614;2023-07-31T00:35:22;0.08;;;0.08;;
52126;SDS011;38120;53.176;6.614;2023-07-31T00:37:47;0.10;;;0.10;;
52126;SDS011;38120;53.176;6.614;2023-07-31T00:40:13;0.00;;;0.00;;
52126;SDS011;38120;53.176;6.614;2023-07-31T00:42:39;0.20;;;0.15;;
52126;SDS011;38120;53.176;6.614;2023-07-31T00:45:05;0.25;;;0.05;;
52126;SDS011;38120;53.176;6.614;2023-07-31T00:47:30;0.32;;;0.15;;
52126;SDS011;38120;53.176;6.614;2023-07-31T00:49:57;0.20;;;0.10;;
52126;SDS011;38120;53.176;6.614;2023-07-31T00:52:22;0.05;;;0.05;;
52126;SDS011;38120;53.176;6.614;2023-07-31T00:54:49;0.13;;;0.13;;
52126;SDS011;38120;53.176;6.614;2023-07-31T00:59:41;0.00;;;0.00;;
52126;SDS011;38120;53.176;6.614;2023-07-31T01:02:06;0.00;;;0.00;;
52126;SDS011;38120;53.176;6.614;2023-07-31T01:04:32;0.00;;;0.00;;
52126;SDS011;38120;53.176;6.614;2023-07-31T01:12:12;0.52;;;0.00;;
52126;SDS011;38120;53.176;6.614;2023-07-31T01:14:39;0.00;;;0.00;;
52126;SDS011;38120;53.176;6.614;2023-07-31T01:17:05;0.00;;;0.00;;
52126;SDS011;38120;53.176;6.614;2023-07-31T01:19:31;0.00;;;0.00;;
52126;SDS011;38120;53.176;6.614;2023-07-31T01:21:59;0.00;;;0.00;;
52126;SDS011;38120;53.176;6.614;2023-07-31T01:28:27;2.17;;;0.22;;
52126;SDS011;38120;53.176;6.614;2023-07-31T01:30:40;0.13;;;0.00;;
52126;SDS011;38120;53.176;6.614;2023-07-31T01:33:08;0.00;;;0.00;;
52126;SDS011;38120;53.176;6.614;2023-07-31T01:35:34;0.00;;;0.00;;
52126;SDS011;38120;53.176;6.614;2023-07-31T01:38:01;0.00;;;0.00;;
52126;SDS011;38120;53.176;6.614;2023-07-31T01:40:27;0.00;;;0.00;;
52126;SDS011;38120;53.176;6.614;2023-07-31T01:42:52;0.45;;;0.22;;
52126;SDS011;38120;53.176;6.614;2023-07-31T01:45:18;0.35;;;0.20;;
52126;SDS011;38120;53.176;6.614;2023-07-31T01:47:44;0.00;;;0.00;;
52126;SDS011;38120;53.176;6.614;2023-07-31T01:50:10;0.00;;;0.00;;
52126;SDS011;38120;53.176;6.614;2023-07-31T01:52:36;0.15;;;0.00;;
52126;SDS011;38120;53.176;6.614;2023-07-31T01:55:02;0.10;;;0.03;;
52126;SDS011;38120;53.176;6.614;2023-07-31T01:57:27;0.00;;;0.00;;
52126;SDS011;38120;53.176;6.614;2023-07-31T01:59:53;0.20;;;0.10;;
52126;SDS011;38120;53.176;6.614;2023-07-31T02:02:19;0.00;;;0.00;;
52126;SDS011;38120;53.176;6.614;2023-07-31T02:04:46;0.00;;;0.00;;
52126;SDS011;38120;53.176;6.614;2023-07-31T02:07:12;0.00;;;0.00;;
52126;SDS011;38120;53.176;6.614;2023-07-31T02:09:37;0.00;;;0.00;;
52126;SDS011;38120;53.176;6.614;2023-07-31T02:12:03;0.00;;;0.00;;
52126;SDS011;38120;53.176;6.614;2023-07-31T02:14:29;0.00;;;0.00;;
52126;SDS011;38120;53.176;6.614;2023-07-31T02:16:55;0.00;;;0.00;;
52126;SDS011;38120;53.176;6.614;2023-07-31T02:19:20;0.00;;;0.00;;
52126;SDS011;38120;53.176;6.614;2023-07-31T02:21:46;0.00;;;0.00;;
52126;SDS011;38120;53.176;6.614;2023-07-31T02:24:11;0.00;;;0.00;;
52126;SDS011;38120;53.176;6.614;2023-07-31T02:26:37;0.00;;;0.00;;
52126;SDS011;38120;53.176;6.614;2023-07-31T02:29:03;0.00;;;0.00;;
52126;SDS011;38120;53.176;6.614;2023-07-31T02:31:28;0.00;;;0.00;;
52126;SDS011;38120;53.176;6.614;2023-07-31T02:33:54;0.00;;;0.00;;
52126;SDS011;38120;53.176;6.614;2023-07-31T02:36:20;0.00;;;0.00;;
52126;SDS011;38120;53.176;6.614;2023-07-31T02:38:45;0.00;;;0.00;;
52126;SDS011;38120;53.176;6.614;2023-07-31T02:41:11;0.73;;;0.65;;
52126;SDS011;38120;53.176;6.614;2023-07-31T02:43:37;0.08;;;0.08;;
52126;SDS011;38120;53.176;6.614;2023-07-31T02:46:02;0.00;;;0.00;;
52126;SDS011;38120;53.176;6.614;2023-07-31T02:48:28;0.00;;;0.00;;
52126;SDS011;38120;53.176;6.614;2023-07-31T02:50:53;0.00;;;0.00;;
52126;SDS011;38120;53.176;6.614;2023-07-31T02:53:19;0.00;;;0.00;;
52126;SDS011;38120;53.176;6.614;2023-07-31T02:55:45;0.00;;;0.00;;
52126;SDS011;38120;53.176;6.614;2023-07-31T02:58:11;0.00;;;0.00;;
52126;SDS011;38120;53.176;6.614;2023-07-31T03:00:41;0.00;;;0.00;;
52126;SDS011;38120;53.176;6.614;2023-07-31T03:03:10;0.00;;;0.00;;
52126;SDS011;38120;53.176;6.614;2023-07-31T03:05:36;0.00;;;0.00;;
52126;SDS011;38120;53.176;6.614;2023-07-31T03:08:02;0.00;;;0.00;;
52126;SDS011;38120;53.176;6.614;2023-07-31T03:12:54;0.13;;;0.10;;
52126;SDS011;38120;53.176;6.614;2023-07-31T03:15:20;0.10;;;0.08;;
52126;SDS011;38120;53.176;6.614;2023-07-31T03:17:45;0.47;;;0.13;;
52126;SDS011;38120;53.176;6.614;2023-07-31T03:20:11;0.10;;;0.10;;
52126;SDS011;38120;53.176;6.614;2023-07-31T03:22:37;0.63;;;0.47;;
52126;SDS011;38120;53.176;6.614;2023-07-31T03:25:03;0.00;;;0.00;;
52126;SDS011;38120;53.176;6.614;2023-07-31T03:27:29;0.00;;;0.00;;
52126;SDS011;38120;53.176;6.614;2023-07-31T03:29:54;0.00;;;0.00;;
52126;SDS011;38120;53.176;6.614;2023-07-31T03:32:20;0.13;;;0.10;;
52126;SDS011;38120;53.176;6.614;2023-07-31T03:34:46;0.00;;;0.00;;
52126;SDS011;38120;53.176;6.614;2023-07-31T03:37:12;0.00;;;0.00;;
52126;SDS011;38120;53.176;6.614;2023-07-31T03:39:37;0.00;;;0.00;;
52126;SDS011;38120;53.176;6.614;2023-07-31T03:42:03;0.00;;;0.00;;
52126;SDS011;38120;53.176;6.614;2023-07-31T03:44:29;0.00;;;0.00;;
52126;SDS011;38120;53.176;6.614;2023-07-31T03:46:55;0.20;;;0.10;;
52126;SDS011;38120;53.176;6.614;2023-07-31T03:49:20;0.00;;;0.00;;
52126;SDS011;38120;53.176;6.614;2023-07-31T03:51:46;0.00;;;0.00;;
52126;SDS011;38120;53.176;6.614;2023-07-31T03:54:12;0.00;;;0.00;;
52126;SDS011;38120;53.176;6.614;2023-07-31T03:56:38;0.00;;;0.00;;
52126;SDS011;38120;53.176;6.614;2023-07-31T03:59:04;0.00;;;0.00;;
52126;SDS011;38120;53.176;6.614;2023-07-31T04:01:29;0.00;;;0.00;;
52126;SDS011;38120;53.176;6.614;2023-07-31T04:03:55;0.00;;;0.00;;
52126;SDS011;38120;53.176;6.614;2023-07-31T04:06:21;0.00;;;0.00;;
52126;SDS011;38120;53.176;6.614;2023-07-31T04:08:46;0.30;;;0.10;;
52126;SDS011;38120;53.176;6.614;2023-07-31T04:11:12;0.00;;;0.00;;
52126;SDS011;38120;53.176;6.614;2023-07-31T04:13:38;0.00;;;0.00;;
52126;SDS011;38120;53.176;6.614;2023-07-31T04:16:04;0.00;;;0.00;;
52126;SDS011;38120;53.176;6.614;2023-07-31T04:18:30;0.00;;;0.00;;
52126;SDS011;38120;53.176;6.614;2023-07-31T04:20:57;0.00;;;0.00;;
52126;SDS011;38120;53.176;6.614;2023-07-31T04:23:29;0.00;;;0.00;;
52126;SDS011;38120;53.176;6.614;2023-07-31T04:25:55;0.00;;;0.00;;
52126;SDS011;38120;53.176;6.614;2023-07-31T04:28:21;0.00;;;0.00;;
52126;SDS011;38120;53.176;6.614;2023-07-31T04:30:47;0.00;;;0.00;;
52126;SDS011;38120;53.176;6.614;2023-07-31T04:33:12;0.00;;;0.00;;
52126;SDS011;38120;53.176;6.614;2023-07-31T04:35:38;0.00;;;0.00;;
52126;SDS011;38120;53.176;6.614;2023-07-31T04:38:04;0.00;;;0.00;;
52126;SDS011;38120;53.176;6.614;2023-07-31T04:40:30;0.00;;;0.00;;
52126;SDS011;38120;53.176;6.614;2023-07-31T04:42:55;0.00;;;0.00;;
52126;SDS011;38120;53.176;6.614;2023-07-31T04:45:21;0.00;;;0.00;;
52126;SDS011;38120;53.176;6.614;2023-07-31T04:47:47;0.00;;;0.00;;
52126;SDS011;38120;53.176;6.614;2023-07-31T04:50:12;0.03;;;0.03;;
52126;SDS011;38120;53.176;6.614;2023-07-31T04:52:39;0.00;;;0.00;;
52126;SDS011;38120;53.176;6.614;2023-07-31T04:55:04;0.00;;;0.00;;
52126;SDS011;38120;53.176;6.614;2023-07-31T04:57:30;0.00;;;0.00;;
52126;SDS011;38120;53.176;6.614;2023-07-31T04:59:56;0.00;;;0.00;;
52126;SDS011;38120;53.176;6.614;2023-07-31T05:02:22;0.00;;;0.00;;
52126;SDS011;38120;53.176;6.614;2023-07-31T05:04:47;0.00;;;0.00;;
52126;SDS011;38120;53.176;6.614;2023-07-31T05:07:13;0.00;;;0.00;;
52126;SDS011;38120;53.176;6.614;2023-07-31T05:09:39;0.00;;;0.00;;
52126;SDS011;38120;53.176;6.614;2023-07-31T05:12:05;0.00;;;0.00;;
52126;SDS011;38120;53.176;6.614;2023-07-31T05:14:31;0.00;;;0.00;;
52126;SDS011;38120;53.176;6.614;2023-07-31T05:16:56;0.00;;;0.00;;
52126;SDS011;38120;53.176;6.614;2023-07-31T05:19:22;0.00;;;0.00;;
52126;SDS011;38120;53.176;6.614;2023-07-31T05:21:48;0.00;;;0.00;;
52126;SDS011;38120;53.176;6.614;2023-07-31T05:24:13;0.00;;;0.00;;
52126;SDS011;38120;53.176;6.614;2023-07-31T05:26:39;0.00;;;0.00;;
52126;SDS011;38120;53.176;6.614;2023-07-31T05:29:05;0.00;;;0.00;;
52126;SDS011;38120;53.176;6.614;2023-07-31T05:31:31;0.00;;;0.00;;
52126;SDS011;38120;53.176;6.614;2023-07-31T05:33:57;0.00;;;0.00;;
52126;SDS011;38120;53.176;6.614;2023-07-31T05:36:23;0.00;;;0.00;;
52126;SDS011;38120;53.176;6.614;2023-07-31T05:38:49;0.00;;;0.00;;
52126;SDS011;38120;53.176;6.614;2023-07-31T05:41:14;0.00;;;0.00;;
52126;SDS011;38120;53.176;6.614;2023-07-31T05:43:41;0.00;;;0.00;;
52126;SDS011;38120;53.176;6.614;2023-07-31T05:46:08;0.00;;;0.00;;
52126;SDS011;38120;53.176;6.614;2023-07-31T05:48:34;0.00;;;0.00;;
52126;SDS011;38120;53.176;6.614;2023-07-31T05:51:00;0.00;;;0.00;;
52126;SDS011;38120;53.176;6.614;2023-07-31T05:53:26;0.00;;;0.00;;
52126;SDS011;38120;53.176;6.614;2023-07-31T05:55:51;0.00;;;0.00;;
52126;SDS011;38120;53.176;6.614;2023-07-31T05:58:17;0.00;;;0.00;;
52126;SDS011;38120;53.176;6.614;2023-07-31T06:00:43;0.00;;;0.00;;
52126;SDS011;38120;53.176;6.614;2023-07-31T06:03:08;0.00;;;0.00;;
52126;SDS011;38120;53.176;6.614;2023-07-31T06:05:34;0.00;;;0.00;;
52126;SDS011;38120;53.176;6.614;2023-07-31T06:07:59;0.00;;;0.00;;
52126;SDS011;38120;53.176;6.614;2023-07-31T06:10:26;0.00;;;0.00;;
52126;SDS011;38120;53.176;6.614;2023-07-31T06:12:51;0.00;;;0.00;;
52126;SDS011;38120;53.176;6.614;2023-07-31T06:15:17;0.00;;;0.00;;
52126;SDS011;38120;53.176;6.614;2023-07-31T06:17:44;0.00;;;0.00;;
52126;SDS011;38120;53.176;6.614;2023-07-31T06:20:10;0.00;;;0.00;;
52126;SDS011;38120;53.176;6.614;2023-07-31T06:22:36;0.20;;;0.20;;
52126;SDS011;38120;53.176;6.614;2023-07-31T06:25:02;0.00;;;0.00;;
52126;SDS011;38120;53.176;6.614;2023-07-31T06:27:28;0.00;;;0.00;;
52126;SDS011;38120;53.176;6.614;2023-07-31T06:29:53;0.00;;;0.00;;
52126;SDS011;38120;53.176;6.614;2023-07-31T06:32:19;0.00;;;0.00;;
52126;SDS011;38120;53.176;6.614;2023-07-31T06:34:45;0.00;;;0.00;;
52126;SDS011;38120;53.176;6.614;2023-07-31T06:37:11;0.00;;;0.00;;
52126;SDS011;38120;53.176;6.614;2023-07-31T06:39:36;0.00;;;0.00;;
52126;SDS011;38120;53.176;6.614;2023-07-31T06:42:02;0.00;;;0.00;;
52126;SDS011;38120;53.176;6.614;2023-07-31T06:44:29;0.00;;;0.00;;
52126;SDS011;38120;53.176;6.614;2023-07-31T06:46:55;0.00;;;0.00;;
52126;SDS011;38120;53.176;6.614;2023-07-31T06:49:20;0.00;;;0.00;;
52126;SDS011;38120;53.176;6.614;2023-07-31T06:51:46;0.00;;;0.00;;
52126;SDS011;38120;53.176;6.614;2023-07-31T06:54:12;0.08;;;0.08;;
52126;SDS011;38120;53.176;6.614;2023-07-31T06:56:37;0.00;;;0.00;;
52126;SDS011;38120;53.176;6.614;2023-07-31T06:59:04;0.00;;;0.00;;
52126;SDS011;38120;53.176;6.614;2023-07-31T07:01:30;0.10;;;0.10;;
52126;SDS011;38120;53.176;6.614;2023-07-31T07:03:55;0.32;;;0.10;;
52126;SDS011;38120;53.176;6.614;2023-07-31T07:06:22;0.00;;;0.00;;
52126;SDS011;38120;53.176;6.614;2023-07-31T07:11:13;0.00;;;0.00;;
52126;SDS011;38120;53.176;6.614;2023-07-31T07:13:39;0.00;;;0.00;;
52126;SDS011;38120;53.176;6.614;2023-07-31T07:16:04;0.00;;;0.00;;
52126;SDS011;38120;53.176;6.614;2023-07-31T07:18:30;0.00;;;0.00;;
52126;SDS011;38120;53.176;6.614;2023-07-31T07:20:56;0.00;;;0.00;;
52126;SDS011;38120;53.176;6.614;2023-07-31T07:23:23;0.00;;;0.00;;
52126;SDS011;38120;53.176;6.614;2023-07-31T07:25:49;0.15;;;0.15;;
52126;SDS011;38120;53.176;6.614;2023-07-31T07:28:15;0.00;;;0.00;;
52126;SDS011;38120;53.176;6.614;2023-07-31T07:30:40;0.00;;;0.00;;
52126;SDS011;38120;53.176;6.614;2023-07-31T07:33:06;0.00;;;0.00;;
52126;SDS011;38120;53.176;6.614;2023-07-31T07:35:35;0.00;;;0.00;;
52126;SDS011;38120;53.176;6.614;2023-07-31T07:38:02;0.00;;;0.00;;
52126;SDS011;38120;53.176;6.614;2023-07-31T07:40:28;0.00;;;0.00;;
52126;SDS011;38120;53.176;6.614;2023-07-31T07:42:54;0.00;;;0.00;;
52126;SDS011;38120;53.176;6.614;2023-07-31T07:45:20;0.00;;;0.00;;
52126;SDS011;38120;53.176;6.614;2023-07-31T07:47:45;0.00;;;0.00;;
52126;SDS011;38120;53.176;6.614;2023-07-31T07:50:11;0.00;;;0.00;;
52126;SDS011;38120;53.176;6.614;2023-07-31T07:52:37;0.00;;;0.00;;
52126;SDS011;38120;53.176;6.614;2023-07-31T07:55:02;0.20;;;0.20;;
52126;SDS011;38120;53.176;6.614;2023-07-31T07:57:28;0.00;;;0.00;;
52126;SDS011;38120;53.176;6.614;2023-07-31T07:59:54;0.00;;;0.00;;
52126;SDS011;38120;53.176;6.614;2023-07-31T08:02:21;0.00;;;0.00;;
52126;SDS011;38120;53.176;6.614;2023-07-31T08:04:47;0.00;;;0.00;;
52126;SDS011;38120;53.176;6.614;2023-07-31T08:07:13;0.00;;;0.00;;
52126;SDS011;38120;53.176;6.614;2023-07-31T08:09:39;0.00;;;0.00;;
52126;SDS011;38120;53.176;6.614;2023-07-31T08:12:05;0.00;;;0.00;;
52126;SDS011;38120;53.176;6.614;2023-07-31T08:14:31;0.00;;;0.00;;
52126;SDS011;38120;53.176;6.614;2023-07-31T08:16:57;0.00;;;0.00;;
52126;SDS011;38120;53.176;6.614;2023-07-31T08:19:23;0.00;;;0.00;;
52126;SDS011;38120;53.176;6.614;2023-07-31T08:21:49;0.00;;;0.00;;
52126;SDS011;38120;53.176;6.614;2023-07-31T08:24:14;0.00;;;0.00;;
52126;SDS011;38120;53.176;6.614;2023-07-31T08:26:40;0.00;;;0.00;;
52126;SDS011;38120;53.176;6.614;2023-07-31T08:29:06;0.00;;;0.00;;
52126;SDS011;38120;53.176;6.614;2023-07-31T08:31:31;0.00;;;0.00;;
52126;SDS011;38120;53.176;6.614;2023-07-31T08:33:57;0.00;;;0.00;;
52126;SDS011;38120;53.176;6.614;2023-07-31T08:36:23;0.00;;;0.00;;
52126;SDS011;38120;53.176;6.614;2023-07-31T08:38:48;0.00;;;0.00;;
52126;SDS011;38120;53.176;6.614;2023-07-31T08:41:15;0.00;;;0.00;;
52126;SDS011;38120;53.176;6.614;2023-07-31T08:43:42;0.00;;;0.00;;
52126;SDS011;38120;53.176;6.614;2023-07-31T08:46:10;0.00;;;0.00;;
52126;SDS011;38120;53.176;6.614;2023-07-31T08:48:37;0.00;;;0.00;;
52126;SDS011;38120;53.176;6.614;2023-07-31T08:51:06;0.00;;;0.00;;
52126;SDS011;38120;53.176;6.614;2023-07-31T08:53:32;0.00;;;0.00;;
52126;SDS011;38120;53.176;6.614;2023-07-31T08:55:58;0.00;;;0.00;;
52126;SDS011;38120;53.176;6.614;2023-07-31T08:58:24;0.00;;;0.00;;
52126;SDS011;38120;53.176;6.614;2023-07-31T09:00:52;0.00;;;0.00;;
52126;SDS011;38120;53.176;6.614;2023-07-31T09:03:21;0.00;;;0.00;;
52126;SDS011;38120;53.176;6.614;2023-07-31T09:05:49;0.00;;;0.00;;
52126;SDS011;38120;53.176;6.614;2023-07-31T09:08:18;0.00;;;0.00;;
52126;SDS011;38120;53.176;6.614;2023-07-31T09:10:45;0.00;;;0.00;;
52126;SDS011;38120;53.176;6.614;2023-07-31T09:13:15;0.00;;;0.00;;
52126;SDS011;38120;53.176;6.614;2023-07-31T09:15:42;0.00;;;0.00;;
52126;SDS011;38120;53.176;6.614;2023-07-31T09:18:10;0.00;;;0.00;;
52126;SDS011;38120;53.176;6.614;2023-07-31T09:20:37;0.00;;;0.00;;
52126;SDS011;38120;53.176;6.614;2023-07-31T09:23:07;0.00;;;0.00;;
52126;SDS011;38120;53.176;6.614;2023-07-31T09:25:33;0.00;;;0.00;;
52126;SDS011;38120;53.176;6.614;2023-07-31T09:30:28;0.00;;;0.00;;
52126;SDS011;38120;53.176;6.614;2023-07-31T09:33:02;0.00;;;0.00;;
52126;SDS011;38120;53.176;6.614;2023-07-31T09:35:31;0.00;;;0.00;;
52126;SDS011;38120;53.176;6.614;2023-07-31T09:38:00;0.00;;;0.00;;
52126;SDS011;38120;53.176;6.614;2023-07-31T09:40:29;0.00;;;0.00;;
52126;SDS011;38120;53.176;6.614;2023-07-31T09:42:57;0.00;;;0.00;;
52126;SDS011;38120;53.176;6.614;2023-07-31T09:45:27;0.00;;;0.00;;
52126;SDS011;38120;53.176;6.614;2023-07-31T09:47:53;0.22;;;0.22;;
52126;SDS011;38120;53.176;6.614;2023-07-31T09:50:20;0.00;;;0.00;;
52126;SDS011;38120;53.176;6.614;2023-07-31T09:52:47;0.00;;;0.00;;
52126;SDS011;38120;53.176;6.614;2023-07-31T09:55:13;0.00;;;0.00;;
52126;SDS011;38120;53.176;6.614;2023-07-31T09:57:44;0.00;;;0.00;;
52126;SDS011;38120;53.176;6.614;2023-07-31T10:00:13;0.00;;;0.00;;
52126;SDS011;38120;53.176;6.614;2023-07-31T10:02:41;0.00;;;0.00;;
52126;SDS011;38120;53.176;6.614;2023-07-31T10:05:12;0.00;;;0.00;;
52126;SDS011;38120;53.176;6.614;2023-07-31T10:07:41;0.00;;;0.00;;
52126;SDS011;38120;53.176;6.614;2023-07-31T10:10:19;0.00;;;0.00;;
52126;SDS011;38120;53.176;6.614;2023-07-31T10:12:46;0.00;;;0.00;;
52126;SDS011;38120;53.176;6.614;2023-07-31T10:15:17;0.00;;;0.00;;
52126;SDS011;38120;53.176;6.614;2023-07-31T10:17:43;0.00;;;0.00;;
52126;SDS011;38120;53.176;6.614;2023-07-31T10:20:09;0.00;;;0.00;;
52126;SDS011;38120;53.176;6.614;2023-07-31T10:22:38;0.00;;;0.00;;
52126;SDS011;38120;53.176;6.614;2023-07-31T10:25:04;0.13;;;0.00;;
52126;SDS011;38120;53.176;6.614;2023-07-31T10:27:34;0.00;;;0.00;;
52126;SDS011;38120;53.176;6.614;2023-07-31T10:30:01;0.00;;;0.00;;
52126;SDS011;38120;53.176;6.614;2023-07-31T10:32:30;0.00;;;0.00;;
52126;SDS011;38120;53.176;6.614;2023-07-31T10:34:56;0.00;;;0.00;;
52126;SDS011;38120;53.176;6.614;2023-07-31T10:37:29;0.00;;;0.00;;
52126;SDS011;38120;53.176;6.614;2023-07-31T10:40:02;0.00;;;0.00;;
52126;SDS011;38120;53.176;6.614;2023-07-31T10:42:37;0.00;;;0.00;;
52126;SDS011;38120;53.176;6.614;2023-07-31T10:45:12;0.00;;;0.00;;
52126;SDS011;38120;53.176;6.614;2023-07-31T10:50:12;0.00;;;0.00;;
52126;SDS011;38120;53.176;6.614;2023-07-31T10:52:50;0.00;;;0.00;;
52126;SDS011;38120;53.176;6.614;2023-07-31T10:55:36;0.00;;;0.00;;
52126;SDS011;38120;53.176;6.614;2023-07-31T10:58:12;0.00;;;0.00;;
52126;SDS011;38120;53.176;6.614;2023-07-31T11:00:42;0.00;;;0.00;;
52126;SDS011;38120;53.176;6.614;2023-07-31T11:10:44;0.00;;;0.00;;
52126;SDS011;38120;53.176;6.614;2023-07-31T11:13:11;0.00;;;0.00;;
52126;SDS011;38120;53.176;6.614;2023-07-31T11:15:37;1.23;;;0.40;;
52126;SDS011;38120;53.176;6.614;2023-07-31T11:18:03;1.17;;;0.57;;
52126;SDS011;38120;53.176;6.614;2023-07-31T11:20:31;1.00;;;0.60;;
52126;SDS011;38120;53.176;6.614;2023-07-31T11:22:58;2.13;;;0.40;;
52126;SDS011;38120;53.176;6.614;2023-07-31T11:25:25;1.30;;;0.52;;
52126;SDS011;38120;53.176;6.614;2023-07-31T11:27:51;1.13;;;0.38;;
52126;SDS011;38120;53.176;6.614;2023-07-31T11:30:19;1.05;;;0.43;;
52126;SDS011;38120;53.176;6.614;2023-07-31T11:32:45;0.88;;;0.30;;
52126;SDS011;38120;53.176;6.614;2023-07-31T11:35:14;0.65;;;0.55;;
52126;SDS011;38120;53.176;6.614;2023-07-31T11:37:40;1.75;;;0.32;;
52126;SDS011;38120;53.176;6.614;2023-07-31T11:40:07;0.93;;;0.32;;
52126;SDS011;38120;53.176;6.614;2023-07-31T11:42:34;0.88;;;0.40;;
52126;SDS011;38120;53.176;6.614;2023-07-31T11:45:04;1.42;;;0.60;;
52126;SDS011;38120;53.176;6.614;2023-07-31T11:47:32;1.52;;;0.32;;
52126;SDS011;38120;53.176;6.614;2023-07-31T11:50:00;2.40;;;0.40;;
52126;SDS011;38120;53.176;6.614;2023-07-31T11:52:27;2.30;;;0.73;;
52126;SDS011;38120;53.176;6.614;2023-07-31T11:55:03;1.77;;;0.70;;
52126;SDS011;38120;53.176;6.614;2023-07-31T11:57:31;2.08;;;0.88;;
52126;SDS011;38120;53.176;6.614;2023-07-31T11:59:58;1.20;;;0.60;;
52126;SDS011;38120;53.176;6.614;2023-07-31T12:02:24;2.03;;;1.00;;
52126;SDS011;38120;53.176;6.614;2023-07-31T12:04:49;2.63;;;0.93;;
52126;SDS011;38120;53.176;6.614;2023-07-31T12:07:16;3.13;;;0.98;;
52126;SDS011;38120;53.176;6.614;2023-07-31T12:09:54;7.07;;;1.17;;
52126;SDS011;38120;53.176;6.614;2023-07-31T12:12:26;1.48;;;0.80;;
52126;SDS011;38120;53.176;6.614;2023-07-31T12:14:52;3.83;;;1.20;;
52126;SDS011;38120;53.176;6.614;2023-07-31T12:17:19;2.75;;;0.98;;
52126;SDS011;38120;53.176;6.614;2023-07-31T12:19:48;1.15;;;0.75;;
52126;SDS011;38120;53.176;6.614;2023-07-31T12:24:41;4.90;;;1.02;;
52126;SDS011;38120;53.176;6.614;2023-07-31T12:27:12;4.50;;;1.02;;
52126;SDS011;38120;53.176;6.614;2023-07-31T12:29:41;3.92;;;0.88;;
52126;SDS011;38120;53.176;6.614;2023-07-31T12:32:19;2.58;;;0.90;;
52126;SDS011;38120;53.176;6.614;2023-07-31T12:34:46;3.55;;;1.17;;
52126;SDS011;38120;53.176;6.614;2023-07-31T12:37:11;2.28;;;0.80;;
52126;SDS011;38120;53.176;6.614;2023-07-31T12:39:37;4.57;;;0.90;;
52126;SDS011;38120;53.176;6.614;2023-07-31T12:42:03;1.77;;;0.80;;
52126;SDS011;38120;53.176;6.614;2023-07-31T12:44:29;0.80;;;0.68;;
52126;SDS011;38120;53.176;6.614;2023-07-31T12:46:54;1.00;;;0.70;;
52126;SDS011;38120;53.176;6.614;2023-07-31T12:49:20;2.42;;;0.88;;
52126;SDS011;38120;53.176;6.614;2023-07-31T12:51:46;2.60;;;0.93;;
52126;SDS011;38120;53.176;6.614;2023-07-31T12:54:12;2.90;;;1.00;;
52126;SDS011;38120;53.176;6.614;2023-07-31T12:59:03;4.93;;;1.52;;
52126;SDS011;38120;53.176;6.614;2023-07-31T13:01:29;3.83;;;1.25;;
52126;SDS011;38120;53.176;6.614;2023-07-31T13:03:55;5.05;;;1.60;;
52126;SDS011;38120;53.176;6.614;2023-07-31T13:06:20;3.35;;;1.55;;
52126;SDS011;38120;53.176;6.614;2023-07-31T13:08:47;10.60;;;2.03;;
52126;SDS011;38120;53.176;6.614;2023-07-31T13:11:12;5.35;;;1.73;;
52126;SDS011;38120;53.176;6.614;2023-07-31T13:13:38;7.65;;;2.00;;
52126;SDS011;38120;53.176;6.614;2023-07-31T13:16:03;5.00;;;1.85;;
52126;SDS011;38120;53.176;6.614;2023-07-31T13:18:29;3.95;;;1.85;;
52126;SDS011;38120;53.176;6.614;2023-07-31T13:20:55;6.47;;;2.22;;
52126;SDS011;38120;53.176;6.614;2023-07-31T13:23:20;9.82;;;2.97;;
52126;SDS011;38120;53.176;6.614;2023-07-31T13:25:46;8.48;;;2.45;;
52126;SDS011;38120;53.176;6.614;2023-07-31T13:28:12;9.05;;;2.63;;
52126;SDS011;38120;53.176;6.614;2023-07-31T13:30:38;8.02;;;2.70;;
52126;SDS011;38120;53.176;6.614;2023-07-31T13:33:03;8.48;;;2.50;;
52126;SDS011;38120;53.176;6.614;2023-07-31T13:35:29;5.82;;;2.85;;
52126;SDS011;38120;53.176;6.614;2023-07-31T13:37:57;5.70;;;2.42;;
52126;SDS011;38120;53.176;6.614;2023-07-31T13:40:22;8.65;;;2.50;;
52126;SDS011;38120;53.176;6.614;2023-07-31T13:42:48;7.22;;;2.55;;
52126;SDS011;38120;53.176;6.614;2023-07-31T13:45:14;7.00;;;2.70;;
52126;SDS011;38120;53.176;6.614;2023-07-31T13:47:40;6.10;;;2.30;;
52126;SDS011;38120;53.176;6.614;2023-07-31T13:50:05;10.57;;;2.25;;
52126;SDS011;38120;53.176;6.614;2023-07-31T13:52:31;9.07;;;2.40;;
52126;SDS011;38120;53.176;6.614;2023-07-31T13:54:57;8.45;;;2.55;;
52126;SDS011;38120;53.176;6.614;2023-07-31T13:57:23;7.38;;;2.45;;
52126;SDS011;38120;53.176;6.614;2023-07-31T13:59:49;11.10;;;2.70;;
52126;SDS011;38120;53.176;6.614;2023-07-31T14:02:15;6.85;;;2.58;;
52126;SDS011;38120;53.176;6.614;2023-07-31T14:04:41;7.97;;;2.90;;
52126;SDS011;38120;53.176;6.614;2023-07-31T14:07:06;7.72;;;3.58;;
52126;SDS011;38120;53.176;6.614;2023-07-31T14:09:32;7.18;;;3.10;;
52126;SDS011;38120;53.176;6.614;2023-07-31T14:11:58;8.32;;;2.50;;
52126;SDS011;38120;53.176;6.614;2023-07-31T14:14:23;8.50;;;2.90;;
52126;SDS011;38120;53.176;6.614;2023-07-31T14:16:49;9.27;;;2.85;;
52126;SDS011;38120;53.176;6.614;2023-07-31T14:19:15;6.30;;;2.63;;
52126;SDS011;38120;53.176;6.614;2023-07-31T14:21:40;5.78;;;2.17;;
52126;SDS011;38120;53.176;6.614;2023-07-31T14:24:06;6.75;;;2.95;;
52126;SDS011;38120;53.176;6.614;2023-07-31T14:26:32;4.65;;;1.88;;
52126;SDS011;38120;53.176;6.614;2023-07-31T14:28:57;6.88;;;2.75;;
52126;SDS011;38120;53.176;6.614;2023-07-31T14:31:23;6.97;;;2.25;;
52126;SDS011;38120;53.176;6.614;2023-07-31T14:33:49;4.50;;;2.40;;
52126;SDS011;38120;53.176;6.614;2023-07-31T14:36:14;8.88;;;2.70;;
52126;SDS011;38120;53.176;6.614;2023-07-31T14:38:40;8.07;;;3.08;;
52126;SDS011;38120;53.176;6.614;2023-07-31T14:41:06;6.55;;;2.92;;
52126;SDS011;38120;53.176;6.614;2023-07-31T14:43:31;7.10;;;2.95;;
52126;SDS011;38120;53.176;6.614;2023-07-31T14:45:57;7.25;;;2.72;;
52126;SDS011;38120;53.176;6.614;2023-07-31T14:48:25;13.45;;;3.35;;
52126;SDS011;38120;53.176;6.614;2023-07-31T14:50:52;5.80;;;2.90;;
52126;SDS011;38120;53.176;6.614;2023-07-31T14:53:18;14.43;;;4.03;;
52126;SDS011;38120;53.176;6.614;2023-07-31T14:55:43;10.75;;;3.50;;
52126;SDS011;38120;53.176;6.614;2023-07-31T14:58:09;14.65;;;3.42;;
52126;SDS011;38120;53.176;6.614;2023-07-31T15:00:36;7.93;;;3.35;;
52126;SDS011;38120;53.176;6.614;2023-07-31T15:03:02;9.52;;;3.10;;
52126;SDS011;38120;53.176;6.614;2023-07-31T15:05:28;8.40;;;3.60;;
52126;SDS011;38120;53.176;6.614;2023-07-31T15:07:53;10.50;;;3.53;;
52126;SDS011;38120;53.176;6.614;2023-07-31T15:10:19;8.73;;;3.15;;
52126;SDS011;38120;53.176;6.614;2023-07-31T15:12:45;8.15;;;3.30;;
52126;SDS011;38120;53.176;6.614;2023-07-31T15:15:11;7.60;;;3.05;;
52126;SDS011;38120;53.176;6.614;2023-07-31T15:17:37;7.13;;;3.40;;